Terminal Aerodrome Forecast
Issued by NWS Brownsville, TX

Home | Current Version | Previous Version | Text Only | Print | Product List | Glossary On
Versions: 1 2 3 4 5 6 7 8 9 10 11 12 13 14 15 16 17 18 19 20
000
FTUS44 KBRO 052340
TAFBRO
TAF
KBRO 052340Z 0600/0624 14015G23KT P6SM OVC080
      TEMPO 0600/0602 BKN023
     FM060400 13010KT P6SM BKN023
     FM060600 13010KT P6SM BKN015
     FM061500 14015G22KT P6SM SCT015 BKN030
     FM062100 13016G23KT P6SM SCT030 BKN050=

USA.gov is the U.S. government's official web portal to all federal, state and local government web resources and services.